MDPP/POP METAR and TAF weather

Enter ICAO airport designator
Station Type Date Time Source
MDPP METAR 2019/06/18 03:00 UTC NOAA

MDPP 180300Z 00000KT 9999 FEW018 27/24 Q1019


Station Type Date Time Source
MDPP Decoded METAR 2019/06/18 03:00 UTC NOAA

Puerto Plata International, Dominican Republic (MDPP) 19-45N 070-33W
Jun 17, 2019 - 11:00 PM EDT / 2019.06.18 0300 UTC
Wind: Calm:0
Visibility: greater than 7 mile(s):0
Sky conditions: mostly clear
Temperature: 80 F (27 C)
Dew Point: 75 F (24 C)
Relative Humidity: 83%
Pressure (altimeter): 30.09 in. Hg (1019 hPa)
ob: MDPP 180300Z 00000KT 9999 FEW018 27/24 Q1019
cycle: 3

Station Type Date Time Source
MDPP TAF 2019/06/18 06:55 UTC NOAA

TAF MDPP 180400Z 1806/1906 00000KT 9999 FEW018 PROB30 1806/1812 8000 -RA BKN018 SCT070

Example: see airport list